createdAt,value
2018-07-29T00:04:28.572Z,99.99
2018-07-29T00:14:34.942Z,99.99
2018-07-29T00:24:33.982Z,99.99
2018-07-29T00:34:28.626Z,99.99
2018-07-29T00:44:28.622Z,99.99
2018-07-29T00:54:28.652Z,99.99
2018-07-29T01:04:38.953Z,99.99
2018-07-29T01:14:30.003Z,99.99
2018-07-29T01:24:28.691Z,99.99
2018-07-29T01:44:28.719Z,99.99
2018-07-29T01:54:31.955Z,99.99
2018-07-29T02:04:28.693Z,99.99
2018-07-29T02:14:32.075Z,99.99
2018-07-29T02:24:28.742Z,99.99
2018-07-29T02:34:30.853Z,99.99
2018-07-29T02:44:28.770Z,99.99
2018-07-29T02:54:28.780Z,99.99
2018-07-29T03:04:29.812Z,99.99
2018-07-29T03:14:35.064Z,99.99
2018-07-29T03:24:35.667Z,99.99
2018-07-29T03:44:28.799Z,99.99
2018-07-29T03:54:35.212Z,99.99
2018-07-29T04:04:28.863Z,99.99
2018-07-29T04:14:28.830Z,99.99
2018-07-29T04:24:31.940Z,99.99
2018-07-29T04:34:28.846Z,99.99
2018-07-29T04:44:28.855Z,99.99
2018-07-29T04:54:36.217Z,99.99
2018-07-29T05:04:32.111Z,99.99
2018-07-29T05:14:30.942Z,99.99
2018-07-29T05:24:29.868Z,99.99
2018-07-29T05:34:30.971Z,99.99
2018-07-29T05:44:28.844Z,99.99
2018-07-29T05:54:28.858Z,99.99
2018-07-29T06:04:28.856Z,99.99
2018-07-29T06:14:28.855Z,99.99
2018-07-29T06:24:28.847Z,99.3
2018-07-29T06:34:28.866Z,95.31
2018-07-29T06:44:28.865Z,90.05
2018-07-29T06:54:28.880Z,69.84
2018-07-29T07:04:28.854Z,59.12
2018-07-29T07:14:28.875Z,51.95
2018-07-29T07:24:28.877Z,45.97
2018-07-29T07:34:28.878Z,41.33
2018-07-29T07:44:28.935Z,43.15
2018-07-29T07:54:28.888Z,37.36
2018-07-29T08:04:28.929Z,34.67
2018-07-29T08:14:28.890Z,32.98
2018-07-29T08:24:28.890Z,35.13
2018-07-29T08:34:28.890Z,34.83
2018-07-29T08:44:28.923Z,38.7
2018-07-29T08:54:28.896Z,41.27
2018-07-29T09:04:28.889Z,41.09
2018-07-29T09:14:28.911Z,43.95
2018-07-29T09:24:28.901Z,45.83
2018-07-29T09:34:28.965Z,49.19
2018-07-29T09:44:28.905Z,48.63
2018-07-29T09:54:28.953Z,48.02
2018-07-29T10:04:28.945Z,46.95
2018-07-29T10:14:28.955Z,43.96
2018-07-29T10:24:29.056Z,43.75
2018-07-29T10:34:29.273Z,42.75
2018-07-29T10:44:28.949Z,42.09
2018-07-29T10:54:28.932Z,39.75
2018-07-29T11:04:28.947Z,39.86
2018-07-29T11:14:28.956Z,36.16
2018-07-29T11:24:28.960Z,36.63
2018-07-29T11:34:28.973Z,36.82
2018-07-29T11:44:28.970Z,34.62
2018-07-29T11:54:28.953Z,31.11
2018-07-29T12:04:28.976Z,32.12
2018-07-29T12:14:28.961Z,31.78
2018-07-29T12:24:28.982Z,33.09
2018-07-29T12:34:29.021Z,31.31
2018-07-29T12:44:28.970Z,33.94
2018-07-29T12:54:29.046Z,34.97
2018-07-29T13:04:28.976Z,32.66
2018-07-29T13:14:28.991Z,34.72
2018-07-29T13:24:28.983Z,36.15
2018-07-29T13:34:28.980Z,36.1
2018-07-29T13:44:29.177Z,34.94
2018-07-29T13:54:28.981Z,34.55
2018-07-29T14:04:29.011Z,36.21
2018-07-29T14:14:29.010Z,37.38
2018-07-29T14:24:28.996Z,38.32
2018-07-29T14:34:29.116Z,38.82
2018-07-29T14:44:29.027Z,39.75
2018-07-29T14:54:28.993Z,39.96
2018-07-29T15:04:29.000Z,42.11
2018-07-29T15:14:29.017Z,42.85
2018-07-29T15:24:29.002Z,43.63
2018-07-29T15:34:29.043Z,42.58
2018-07-29T15:54:30.442Z,41.97
2018-07-29T16:04:34.203Z,42.65
2018-07-29T16:14:29.039Z,43.59
2018-07-29T16:24:30.093Z,42.8
2018-07-29T16:34:30.314Z,41.58
2018-07-29T16:44:29.216Z,42.3
2018-07-29T16:54:31.972Z,42.29
2018-07-29T17:04:29.259Z,42.5
2018-07-29T17:14:29.123Z,43.2
2018-07-29T17:24:29.369Z,45.12
2018-07-29T17:34:29.677Z,46.07
2018-07-29T17:44:29.313Z,47.29
2018-07-29T18:04:32.776Z,49
2018-07-29T18:14:29.052Z,49.49
2018-07-29T18:34:31.161Z,51.31
2018-07-29T18:54:29.088Z,56.12
2018-07-29T19:04:29.088Z,57.72
2018-07-29T19:14:30.182Z,59.25
2018-07-29T19:24:36.572Z,61.91
2018-07-29T19:34:29.263Z,63.23
2018-07-29T19:44:29.136Z,63.23
2018-07-29T19:54:29.127Z,63.43
2018-07-29T20:04:29.142Z,65.27
2018-07-29T20:14:29.163Z,66.89
2018-07-29T20:24:29.166Z,68.54
2018-07-29T20:34:29.104Z,71.08
2018-07-29T20:44:29.735Z,70.89
2018-07-29T20:54:32.171Z,72.6
2018-07-29T21:24:29.127Z,75.95
2018-07-29T21:34:29.240Z,79.49
2018-07-29T21:44:29.139Z,77.13
2018-07-29T21:54:29.140Z,68.85
2018-07-29T22:04:29.173Z,63.37
2018-07-29T22:14:29.129Z,62.21
2018-07-29T22:24:29.109Z,60.85
2018-07-29T22:34:29.139Z,60.47
2018-07-29T22:44:29.199Z,60.47
2018-07-29T22:54:29.489Z,60.63
2018-07-29T23:04:29.117Z,59.38
2018-07-29T23:14:29.139Z,59.76
2018-07-29T23:24:29.141Z,60.92
2018-07-29T23:34:29.210Z,60.99
2018-07-29T23:44:29.186Z,62.31
2018-07-29T23:54:29.173Z,64.24
